Terminal Aerodrome Forecast
Issued by NWS Bismarck, ND

Home | Current Version | Previous Version | Graphics & Text | Print | Product List | Glossary On
Versions: 1 2 3 4 5 6 7 8 9 10 11 12 13 14 15 16
000
FTUS43 KBIS 311100
TAFISN
TAF
KISN 311129Z 3112/0112 10007KT P6SM -SHRA VCTS SCT080 BKN100CB
     FM311500 14007KT P6SM VCSH BKN110
     FM311900 15007KT P6SM SCT110
     FM010200 09009KT P6SM SCT100=

USA.gov is the U.S. government's official web portal to all federal, state and local government web resources and services.